Time;durP1;ratioP1;P1;durP2;ratioP2;P2;SDS_P1;SDS_P2;PMS_P1;PMS_P2;Temp;Humidity;BMP_temperature;BMP_pressure;BME280_temperature;BME280_humidity;BME280_pressure;Samples;Min_cycle;Max_cycle;Signal;HPM_P1;HPM_P2
2021/07/02 00:01:30;;;;;;;15.10;10.70;;;;;;;19.84;95.35;99283.13;1778743;80;21031;-81
2021/07/02 00:03:57;;;;;;;20.95;11.22;;;;;;;19.84;95.75;99283.13;1783594;80;21606;-82
2021/07/02 00:06:25;;;;;;;16.17;10.35;;;;;;;19.86;95.06;99283.00;1783201;80;21052;-82
2021/07/02 00:08:52;;;;;;;13.28;8.00;;;;;;;19.85;95.33;99275.48;1783205;80;21558;-78
2021/07/02 00:11:19;;;;;;;12.07;7.95;;;;;;;19.86;94.94;99273.15;1782802;80;21161;-81
2021/07/02 00:13:46;;;;;;;15.10;9.20;;;;;;;19.88;94.96;99269.85;1757728;80;21562;-81
2021/07/02 00:16:12;;;;;;;17.32;9.10;;;;;;;19.90;95.12;99275.06;1758650;81;21125;-81
2021/07/02 00:18:41;;;;;;;14.83;10.60;;;;;;;19.89;94.64;99274.20;1742143;81;21088;-79
2021/07/02 00:21:08;;;;;;;16.17;10.43;;;;;;;19.85;94.81;99276.81;1759424;81;21053;-82
2021/07/02 00:23:35;;;;;;;8.58;6.97;;;;;;;19.80;94.33;99274.18;1759607;81;21540;-80
2021/07/02 00:26:02;;;;;;;12.40;8.80;;;;;;;19.74;94.79;99271.58;1759142;81;21065;-80
2021/07/02 00:28:30;;;;;;;15.28;11.05;;;;;;;19.72;94.33;99271.37;1759182;81;21280;-80
2021/07/02 00:30:57;;;;;;;11.93;7.08;;;;;;;19.68;94.60;99268.08;1759085;81;21064;-80
2021/07/02 00:33:24;;;;;;;17.40;13.03;;;;;;;19.64;94.41;99266.15;1758914;81;21060;-80
2021/07/02 00:35:51;;;;;;;19.87;13.62;;;;;;;19.61;95.15;99256.25;1726092;81;21618;-79
2021/07/02 00:38:18;;;;;;;18.35;12.82;;;;;;;19.58;95.82;99255.16;1742283;82;21088;-82
2021/07/02 00:40:45;;;;;;;17.95;12.55;;;;;;;19.52;96.50;99259.73;1725270;81;21823;-79
2021/07/02 00:43:12;;;;;;;19.77;13.18;;;;;;;19.45;97.16;99258.92;1701967;84;21053;-80
2021/07/02 00:45:39;;;;;;;27.93;13.38;;;;;;;19.41;97.71;99253.49;1725952;83;21120;-81
2021/07/02 00:48:08;;;;;;;20.55;13.55;;;;;;;19.33;98.23;99249.33;1726352;83;21225;-80
2021/07/02 00:50:35;;;;;;;18.25;11.50;;;;;;;19.23;98.53;99253.77;1726728;83;21269;-81
2021/07/02 00:53:04;;;;;;;19.15;11.22;;;;;;;19.15;98.73;99258.94;1726197;83;22110;-79
2021/07/02 00:55:34;;;;;;;17.60;11.93;;;;;;;19.11;98.36;99253.01;1726139;83;21098;-79
2021/07/02 00:58:00;;;;;;;18.32;11.30;;;;;;;19.07;98.59;99251.11;1726337;83;21030;-79
2021/07/02 01:00:29;;;;;;;13.78;10.32;;;;;;;19.03;98.70;99250.17;1726722;83;21123;-79
2021/07/02 01:02:57;;;;;;;10.10;7.22;;;;;;;18.99;98.68;99253.58;1726606;83;21104;-79
2021/07/02 01:05:24;;;;;;;13.30;7.97;;;;;;;18.98;99.00;99253.23;1726575;83;22315;-79
2021/07/02 01:07:53;;;;;;;18.65;9.75;;;;;;;18.96;99.06;99247.19;1726672;83;21555;-81
2021/07/02 01:10:21;;;;;;;11.85;9.13;;;;;;;18.98;99.38;99240.36;1726489;83;21079;-80
2021/07/02 01:12:49;;;;;;;18.75;10.53;;;;;;;18.99;99.35;99247.41;1726911;83;21088;-82
2021/07/02 01:15:20;;;;;;;19.45;11.18;;;;;;;18.96;99.16;99241.84;1726656;83;21092;-80
2021/07/02 01:17:48;;;;;;;14.90;9.95;;;;;;;18.94;99.38;99235.80;1727049;83;21139;-80
2021/07/02 01:20:14;;;;;;;17.82;9.98;;;;;;;18.90;99.55;99237.03;1779880;80;21048;-80
2021/07/02 01:22:42;;;;;;;20.90;10.20;;;;;;;18.87;99.76;99237.30;1779760;80;21516;-82
2021/07/02 01:25:11;;;;;;;16.82;9.30;;;;;;;18.82;99.68;99231.03;1779812;80;21044;-80
2021/07/02 01:27:38;;;;;;;15.83;9.68;;;;;;;18.78;99.83;99234.92;1779868;79;21074;-84
2021/07/02 01:30:08;;;;;;;19.23;11.25;;;;;;;18.78;100.00;99230.09;1780370;80;21604;-85
2021/07/02 01:32:36;;;;;;;14.63;9.50;;;;;;;18.73;100.00;99232.28;1780193;79;21048;-84
2021/07/02 01:35:05;;;;;;;14.68;9.23;;;;;;;18.69;100.00;99225.51;1780171;80;21083;-84
2021/07/02 01:37:32;;;;;;;16.40;9.63;;;;;;;18.65;100.00;99225.75;1756692;80;21567;-84
2021/07/02 01:40:05;;;;;;;13.53;9.48;;;;;;;18.62;100.00;99220.69;1785439;80;21088;-82
2021/07/02 01:42:32;;;;;;;16.70;10.68;;;;;;;18.61;100.00;99223.47;1785803;80;21587;-83
2021/07/02 01:44:59;;;;;;;15.00;10.03;;;;;;;18.59;100.00;99219.62;1785682;80;21029;-82
2021/07/02 01:47:28;;;;;;;11.85;8.25;;;;;;;18.53;100.00;99217.47;1785643;80;21097;-84
2021/07/02 01:49:56;;;;;;;13.68;8.95;;;;;;;18.49;100.00;99217.36;1786110;80;21060;-83
2021/07/02 01:52:25;;;;;;;12.60;9.10;;;;;;;18.44;100.00;99221.75;1785933;80;21052;-81
2021/07/02 01:54:54;;;;;;;15.40;9.63;;;;;;;18.43;100.00;99229.89;1785448;80;22063;-81
2021/07/02 01:57:24;;;;;;;11.28;7.60;;;;;;;18.40;100.00;99228.80;1775457;80;21461;-82
2021/07/02 01:59:52;;;;;;;15.35;10.32;;;;;;;18.37;100.00;99226.40;1775496;80;21076;-80
2021/07/02 02:02:19;;;;;;;22.60;10.90;;;;;;;18.36;100.00;99230.05;1785097;80;21601;-80
2021/07/02 02:04:48;;;;;;;18.62;10.10;;;;;;;18.38;100.00;99233.41;1785328;80;21065;-77
2021/07/02 02:07:15;;;;;;;17.30;10.45;;;;;;;18.40;100.00;99242.12;1785194;80;21877;-77
2021/07/02 02:09:43;;;;;;;14.07;9.98;;;;;;;18.37;100.00;99243.23;1785156;80;21584;-79
2021/07/02 02:12:12;;;;;;;17.73;10.88;;;;;;;18.36;100.00;99248.70;1785218;80;21070;-77
2021/07/02 02:14:42;;;;;;;14.33;10.20;;;;;;;18.37;100.00;99243.72;1784627;80;21081;-78
2021/07/02 02:17:13;;;;;;;13.05;9.20;;;;;;;18.38;99.88;99252.06;1785252;80;21089;-78
2021/07/02 02:19:41;;;;;;;11.40;8.00;;;;;;;18.39;99.43;99249.78;1784946;80;21162;-79
2021/07/02 02:22:09;;;;;;;11.28;7.53;;;;;;;18.39;99.09;99258.61;1785507;80;21549;-79
2021/07/02 02:24:39;;;;;;;15.72;9.50;;;;;;;18.41;99.05;99262.49;1784891;80;21078;-78
2021/07/02 02:27:09;;;;;;;14.38;8.90;;;;;;;18.44;99.51;99264.89;1785178;80;21060;-78
2021/07/02 02:29:37;;;;;;;14.18;9.80;;;;;;;18.49;100.00;99271.17;1785330;80;21054;-76
2021/07/02 02:32:06;;;;;;;14.63;9.03;;;;;;;18.51;100.00;99276.73;1784990;80;21452;-75
2021/07/02 02:34:33;;;;;;;12.82;9.83;;;;;;;18.54;100.00;99279.16;1754225;80;22110;-77
2021/07/02 02:37:01;;;;;;;15.72;9.10;;;;;;;18.59;100.00;99282.78;1786540;80;21057;-78
2021/07/02 02:39:30;;;;;;;16.55;9.68;;;;;;;18.65;100.00;99277.75;1788007;80;21056;-76
2021/07/02 02:41:57;;;;;;;14.95;10.30;;;;;;;18.73;99.96;99290.95;1788289;80;21704;-77
2021/07/02 02:44:24;;;;;;;15.58;11.53;;;;;;;18.78;99.66;99289.61;1788126;78;21761;-76
2021/07/02 02:46:53;;;;;;;14.93;11.20;;;;;;;18.83;99.86;99287.88;1788109;80;21595;-77
2021/07/02 02:49:21;;;;;;;21.17;13.60;;;;;;;18.89;100.00;99282.50;1788641;80;21213;-84
2021/07/02 02:51:51;;;;;;;20.65;12.93;;;;;;;18.93;100.00;99280.78;1789624;80;21068;-86
2021/07/02 02:54:20;;;;;;;16.55;12.85;;;;;;;18.98;100.00;99286.59;1789382;80;21049;-87
2021/07/02 02:57:06;;;;;;;18.67;12.93;;;;;;;19.02;100.00;99282.66;1789662;80;21127;-86
2021/07/02 02:59:37;;;;;;;14.95;11.50;;;;;;;19.07;100.00;99284.47;1789860;80;21081;-90
2021/07/02 03:02:06;;;;;;;20.10;13.35;;;;;;;19.17;100.00;99282.34;1762072;80;21012;-89
2021/07/02 03:04:36;;;;;;;18.90;13.87;;;;;;;19.24;100.00;99280.33;1757661;81;21087;-88
2021/07/02 03:07:06;;;;;;;21.12;12.47;;;;;;;19.35;100.00;99284.75;1782649;80;21048;-85
2021/07/02 03:09:34;;;;;;;18.95;12.20;;;;;;;19.47;100.00;99283.67;1760633;80;21096;-83
2021/07/02 03:12:05;;;;;;;21.73;13.00;;;;;;;19.64;100.00;99286.68;1788572;80;21056;-84
2021/07/02 03:14:32;;;;;;;16.17;11.73;;;;;;;19.82;100.00;99285.08;1781802;80;21607;-82
2021/07/02 03:17:03;;;;;;;21.17;12.58;;;;;;;20.00;99.72;99300.47;1744310;81;21085;-83
2021/07/02 03:19:32;;;;;;;17.52;11.50;;;;;;;20.18;98.49;99300.66;1781072;79;21000;-80
2021/07/02 03:21:59;;;;;;;18.75;13.15;;;;;;;20.36;97.56;99297.65;1788624;80;21072;-81
2021/07/02 03:24:28;;;;;;;24.07;13.15;;;;;;;20.54;96.45;99304.45;1769921;80;21453;-80
2021/07/02 03:26:55;;;;;;;17.42;12.53;;;;;;;20.70;95.41;99303.92;1776642;78;21052;-77
2021/07/02 03:29:24;;;;;;;18.82;14.43;;;;;;;20.85;93.90;99305.69;1787939;80;21095;-87
2021/07/02 03:31:51;;;;;;;24.85;14.18;;;;;;;21.01;91.99;99304.61;1787391;80;21028;-86
2021/07/02 03:34:19;;;;;;;19.50;13.30;;;;;;;21.14;91.17;99304.28;1788652;80;21083;-85
2021/07/02 03:36:46;;;;;;;17.85;13.35;;;;;;;21.29;90.31;99296.14;1781702;80;21112;-86
2021/07/02 03:39:15;;;;;;;17.70;11.30;;;;;;;21.41;89.69;99302.20;1712814;83;21002;-85
2021/07/02 03:41:42;;;;;;;20.62;11.03;;;;;;;21.55;89.40;99299.53;1712606;83;21044;-83
2021/07/02 03:44:10;;;;;;;13.93;10.85;;;;;;;21.72;89.05;99303.29;1718468;83;21061;-85
2021/07/02 03:46:38;;;;;;;16.10;10.85;;;;;;;21.88;87.06;99295.45;1749981;82;21491;-89
2021/07/02 03:49:07;;;;;;;15.32;11.10;;;;;;;22.04;86.34;99288.56;1749934;82;21009;-90
2021/07/02 03:51:35;;;;;;;17.10;12.43;;;;;;;22.20;85.69;99298.12;1751216;82;21007;-77
2021/07/02 03:54:02;;;;;;;20.50;12.73;;;;;;;22.38;86.04;99289.65;1748685;82;21153;-82
2021/07/02 03:56:29;;;;;;;16.70;12.07;;;;;;;22.54;84.20;99289.44;1751843;80;21052;-86
2021/07/02 03:58:57;;;;;;;20.82;12.65;;;;;;;22.69;83.73;99301.31;1744401;82;21033;-84
2021/07/02 04:01:24;;;;;;;18.00;12.70;;;;;;;22.77;83.69;99291.14;1739418;82;21005;-85
2021/07/02 04:03:51;;;;;;;18.02;12.85;;;;;;;22.86;83.35;99288.02;1743742;82;21089;-90
2021/07/02 04:06:18;;;;;;;19.57;13.45;;;;;;;22.92;82.87;99286.07;1742433;82;20982;-82
2021/07/02 04:08:46;;;;;;;16.40;13.10;;;;;;;22.99;82.89;99280.45;1742650;82;21137;-88
2021/07/02 04:11:15;;;;;;;20.65;13.62;;;;;;;23.05;82.53;99274.42;1711281;83;21073;-81
2021/07/02 04:13:43;;;;;;;22.70;13.90;;;;;;;23.13;81.74;99275.83;1714473;81;21085;-86
2021/07/02 04:16:10;;;;;;;18.37;14.15;;;;;;;23.23;81.61;99279.23;1706633;83;21064;-78
2021/07/02 04:18:37;;;;;;;21.68;14.03;;;;;;;23.34;81.22;99282.67;1726780;82;21049;-82
2021/07/02 04:21:06;;;;;;;15.38;11.85;;;;;;;23.42;80.83;99281.36;1776364;80;21576;-81
2021/07/02 04:23:33;;;;;;;26.17;13.45;;;;;;;23.52;79.87;99286.13;1752369;80;21125;-82
2021/07/02 04:26:00;;;;;;;19.57;13.22;;;;;;;23.63;78.29;99298.45;1772896;80;21041;-83
2021/07/02 04:28:27;;;;;;;16.40;12.15;;;;;;;23.68;77.44;99300.66;1774626;79;21107;-80
2021/07/02 04:30:54;;;;;;;18.35;13.32;;;;;;;23.74;76.52;99293.27;1774778;80;21100;-82
2021/07/02 04:33:21;;;;;;;14.58;10.65;;;;;;;23.79;77.02;99300.41;1779200;80;21123;-81
2021/07/02 04:35:48;;;;;;;16.93;12.65;;;;;;;23.90;75.29;99294.70;1778833;80;22094;-81
2021/07/02 04:38:15;;;;;;;19.30;11.65;;;;;;;23.99;75.54;99292.37;1768953;80;21522;-81
2021/07/02 04:40:43;;;;;;;18.17;12.40;;;;;;;24.13;75.46;99291.41;1761955;80;21131;-80
2021/07/02 04:43:10;;;;;;;20.85;12.10;;;;;;;24.24;75.37;99283.03;1763630;80;21678;-82
2021/07/02 04:45:38;;;;;;;16.67;11.15;;;;;;;24.36;74.10;99287.08;1773844;80;21132;-82
2021/07/02 04:48:05;;;;;;;21.42;13.50;;;;;;;24.38;73.44;99279.69;1764171;80;21967;-81
2021/07/02 04:52:07;;;;;;;16.00;11.25;;;;;;;24.39;71.79;99273.83;1786225;79;22596;-82
2021/07/02 04:54:34;;;;;;;14.18;9.25;;;;;;;24.38;70.27;99271.62;1750542;81;21042;-82
2021/07/02 04:57:02;;;;;;;13.88;9.98;;;;;;;24.42;69.81;99268.94;1747188;81;21140;-79
2021/07/02 04:59:33;;;;;;;16.70;10.03;;;;;;;24.53;70.62;99265.62;1755887;81;21006;-80
2021/07/02 05:15:11;;;;;;;13.28;9.73;;;;;;;26.11;65.60;99266.25;1776820;80;22755;-82
2021/07/02 05:17:40;;;;;;;13.10;9.28;;;;;;;26.35;64.17;99269.28;1751930;81;21045;-84
2021/07/02 05:20:07;;;;;;;12.03;8.90;;;;;;;26.64;64.16;99273.66;1738535;81;21160;-82
2021/07/02 05:22:35;;;;;;;14.15;8.60;;;;;;;26.93;62.47;99266.98;1749932;81;20976;-82
2021/07/02 05:25:06;;;;;;;12.37;9.58;;;;;;;27.22;61.87;99281.61;1727875;81;20995;-82
2021/07/02 05:27:33;;;;;;;17.05;10.50;;;;;;;27.50;60.77;99280.97;1752190;81;21528;-82
2021/07/02 05:30:00;;;;;;;12.85;9.08;;;;;;;27.56;60.56;99283.77;1738629;81;21354;-82
2021/07/02 05:32:27;;;;;;;14.98;10.10;;;;;;;27.58;59.88;99286.26;1767380;80;21175;-80
2021/07/02 05:34:54;;;;;;;12.60;9.25;;;;;;;27.49;59.38;99287.38;1742142;81;21503;-83
2021/07/02 05:37:21;;;;;;;16.05;9.55;;;;;;;27.26;59.15;99286.11;1754476;81;21135;-82
2021/07/02 05:39:49;;;;;;;12.15;9.10;;;;;;;27.16;59.15;99293.11;1748854;80;21051;-82
2021/07/02 05:42:21;;;;;;;13.85;8.55;;;;;;;27.31;59.80;99291.31;1750308;81;21642;-82
2021/07/02 05:44:44;;;;;;;16.05;9.85;;;;;;;27.62;58.64;99294.33;1749417;81;21080;-81
2021/07/02 05:47:10;;;;;;;12.15;8.00;;;;;;;27.95;57.59;99298.00;1746732;81;21131;-82
2021/07/02 05:49:37;;;;;;;15.13;9.65;;;;;;;28.13;54.98;99286.77;1753067;81;21085;-81
2021/07/02 05:52:05;;;;;;;14.07;8.83;;;;;;;27.99;55.12;99292.02;1744577;81;21792;-81
2021/07/02 05:54:32;;;;;;;13.88;8.90;;;;;;;27.88;55.65;99302.50;1749730;81;21100;-80
2021/07/02 05:56:59;;;;;;;12.45;8.53;;;;;;;27.86;55.46;99304.55;1742743;81;21053;-82
2021/07/02 05:59:26;;;;;;;13.68;8.13;;;;;;;27.96;55.43;99302.41;1751912;81;21073;-82
2021/07/02 06:01:52;;;;;;;14.60;9.35;;;;;;;28.18;56.37;99301.92;1753221;81;21416;-83
2021/07/02 06:04:19;;;;;;;26.25;9.63;;;;;;;28.28;55.65;99301.63;1749983;81;21029;-82
2021/07/02 06:06:48;;;;;;;12.78;8.00;;;;;;;27.97;56.53;99312.19;1758564;81;21056;-82
2021/07/02 06:09:15;;;;;;;11.88;8.20;;;;;;;27.91;56.51;99315.67;1722480;81;21477;-83
2021/07/02 06:11:42;;;;;;;15.30;9.65;;;;;;;28.06;56.26;99306.98;1698253;83;21580;-83
2021/07/02 06:14:08;;;;;;;15.68;8.23;;;;;;;28.30;55.45;99306.31;1709427;83;21055;-83
2021/07/02 06:16:35;;;;;;;9.80;8.35;;;;;;;28.53;54.92;99313.80;1700552;83;20990;-86
2021/07/02 06:19:02;;;;;;;14.90;9.00;;;;;;;28.75;53.74;99307.02;1704006;83;21124;-80
2021/07/02 06:21:29;;;;;;;13.43;8.53;;;;;;;28.93;53.21;99304.67;1702565;82;21559;-84
2021/07/02 06:23:56;;;;;;;15.28;8.65;;;;;;;28.99;52.64;99298.48;1707185;82;21029;-83
2021/07/02 06:26:23;;;;;;;13.15;9.55;;;;;;;28.78;52.57;99297.14;1700001;82;22115;-82
2021/07/02 06:28:49;;;;;;;14.05;8.18;;;;;;;28.54;52.59;99307.34;1725717;83;21081;-81
2021/07/02 06:31:16;;;;;;;12.55;8.25;;;;;;;28.55;53.10;99295.49;1726073;81;21096;-80
2021/07/02 06:33:43;;;;;;;11.88;8.03;;;;;;;28.87;52.16;99302.73;1726721;83;21041;-80
2021/07/02 06:36:10;;;;;;;11.48;5.40;;;;;;;29.07;51.48;99298.84;1726081;81;21042;-80
2021/07/02 06:38:38;;;;;;;13.20;6.60;;;;;;;29.28;50.89;99291.20;1724770;81;21169;-80
2021/07/02 06:41:05;;;;;;;18.95;7.85;;;;;;;29.66;50.01;99294.88;1746087;81;21080;-80
2021/07/02 06:43:32;;;;;;;14.28;7.35;;;;;;;29.98;48.48;99284.38;1704088;83;21093;-81
2021/07/02 06:45:59;;;;;;;28.57;8.88;;;;;;;30.16;46.56;99282.47;1704464;82;21165;-79
2021/07/02 06:48:26;;;;;;;8.55;6.90;;;;;;;30.06;47.94;99274.72;1691284;83;21182;-80
2021/07/02 06:50:56;;;;;;;13.13;7.17;;;;;;;30.09;48.17;99281.08;1701188;82;21672;-78
2021/07/02 06:53:22;;;;;;;14.00;7.12;;;;;;;30.31;47.79;99275.86;1705938;82;21072;-80
2021/07/02 06:55:51;;;;;;;19.15;7.30;;;;;;;30.39;46.80;99276.70;1703660;83;22196;-81
2021/07/02 06:58:18;;;;;;;15.53;7.10;;;;;;;30.31;46.87;99278.57;1701661;82;21561;-80
2021/07/02 07:00:45;;;;;;;14.50;7.58;;;;;;;30.42;46.74;99284.45;1696538;83;21064;-80
2021/07/02 07:03:12;;;;;;;10.13;6.25;;;;;;;30.60;46.58;99278.40;1704442;82;22421;-79
2021/07/02 07:05:39;;;;;;;26.30;7.97;;;;;;;30.66;46.83;99275.69;1706912;82;21088;-80
2021/07/02 07:08:08;;;;;;;8.33;6.08;;;;;;;30.93;46.35;99274.38;1698236;82;21021;-80
2021/07/02 07:10:37;;;;;;;7.67;5.53;;;;;;;31.15;45.31;99270.89;1697594;83;21151;-82
2021/07/02 07:13:06;;;;;;;15.65;6.42;;;;;;;31.22;45.03;99268.16;1693016;83;21084;-80
2021/07/02 07:15:33;;;;;;;11.90;6.15;;;;;;;31.25;44.27;99273.20;1679433;84;21066;-81
2021/07/02 07:18:00;;;;;;;13.45;5.90;;;;;;;31.10;43.84;99272.88;1674746;84;21206;-80
2021/07/02 07:20:28;;;;;;;10.32;5.83;;;;;;;30.71;44.52;99266.41;1680468;84;21281;-80
2021/07/02 07:22:55;;;;;;;10.72;5.60;;;;;;;30.50;45.03;99270.66;1675954;84;21124;-80
2021/07/02 07:25:22;;;;;;;8.83;5.12;;;;;;;30.41;45.15;99268.66;1677661;84;21117;-80
2021/07/02 07:27:49;;;;;;;10.45;5.72;;;;;;;30.37;45.06;99269.28;1682098;84;21558;-79
2021/07/02 07:30:16;;;;;;;11.05;6.28;;;;;;;30.14;45.54;99275.91;1677654;84;21065;-81
2021/07/02 07:32:46;;;;;;;24.43;6.67;;;;;;;29.96;45.50;99274.28;1681973;84;21086;-81
2021/07/02 07:35:22;;;;;;;22.00;6.90;;;;;;;30.25;45.23;99271.23;1674913;84;22653;-82
2021/07/02 07:37:51;;;;;;;17.20;6.90;;;;;;;30.74;46.08;99261.91;1673804;84;21601;-84
2021/07/02 07:40:15;;;;;;;9.90;5.72;;;;;;;31.17;44.40;99265.25;1672995;84;21116;-85
2021/07/02 07:42:44;;;;;;;9.13;6.17;;;;;;;31.20;44.03;99268.89;1684995;84;21567;-83
2021/07/02 07:45:12;;;;;;;80.05;11.85;;;;;;;31.08;44.27;99273.64;1679693;84;21571;-85
2021/07/02 07:47:39;;;;;;;15.00;6.28;;;;;;;31.08;44.54;99274.14;1665560;84;21088;-81
2021/07/02 07:50:15;;;;;;;18.15;6.78;;;;;;;31.15;44.67;99277.19;1661689;85;21045;-85
2021/07/02 07:52:44;;;;;;;8.35;5.60;;;;;;;31.38;44.54;99275.87;1659730;86;21061;-85
2021/07/02 07:55:08;;;;;;;9.85;5.40;;;;;;;31.63;42.47;99273.86;1678604;84;21041;-84
2021/07/02 07:57:37;;;;;;;10.35;5.30;;;;;;;31.60;42.46;99270.21;1678062;84;21073;-79
2021/07/02 08:00:07;;;;;;;13.55;5.95;;;;;;;31.44;41.15;99268.26;1678972;84;22463;-81
2021/07/02 08:02:35;;;;;;;17.67;5.58;;;;;;;31.48;43.12;99270.88;1687023;84;21057;-81
2021/07/02 08:05:01;;;;;;;10.28;5.62;;;;;;;31.68;42.47;99274.03;1678689;84;21078;-81
2021/07/02 08:07:38;;;;;;;7.53;5.42;;;;;;;31.74;40.93;99276.73;1672392;84;21060;-79
2021/07/02 08:10:08;;;;;;;12.10;6.20;;;;;;;31.73;40.63;99277.80;1676877;84;21116;-79
2021/07/02 08:12:35;;;;;;;15.23;5.97;;;;;;;31.84;42.59;99270.86;1673986;85;21826;-79
2021/07/02 08:15:04;;;;;;;9.88;5.50;;;;;;;31.97;42.25;99273.53;1669671;84;21073;-80
2021/07/02 08:17:31;;;;;;;10.75;5.95;;;;;;;31.93;41.07;99273.64;1667012;85;21073;-79
2021/07/02 08:19:58;;;;;;;9.73;5.72;;;;;;;31.72;41.64;99273.92;1657290;85;21083;-80
2021/07/02 08:22:25;;;;;;;10.38;5.83;;;;;;;31.68;41.52;99271.31;1669354;85;21629;-81
2021/07/02 08:24:52;;;;;;;26.15;6.35;;;;;;;31.78;41.08;99271.72;1669337;85;21121;-81
2021/07/02 08:27:20;;;;;;;22.75;7.17;;;;;;;32.01;41.23;99271.75;1679311;85;21114;-79
2021/07/02 08:29:48;;;;;;;14.95;7.10;;;;;;;32.33;41.21;99278.90;1657726;85;21196;-78
2021/07/02 08:32:15;;;;;;;9.15;6.47;;;;;;;32.58;40.75;99282.23;1661573;85;21054;-80
2021/07/02 08:34:43;;;;;;;13.15;6.80;;;;;;;32.63;40.31;99285.13;1681475;84;21576;-79
2021/07/02 08:37:09;;;;;;;12.33;6.30;;;;;;;32.59;40.38;99290.70;1664799;85;21189;-78
2021/07/02 08:39:37;;;;;;;12.75;6.05;;;;;;;32.55;39.50;99293.55;1671135;85;21043;-81
2021/07/02 08:42:06;;;;;;;9.73;5.92;;;;;;;32.51;39.98;99294.54;1673306;85;21041;-80
2021/07/02 08:44:33;;;;;;;12.70;6.00;;;;;;;32.48;39.18;99291.38;1666028;85;21082;-82
2021/07/02 08:47:00;;;;;;;7.05;5.78;;;;;;;32.50;39.24;99296.08;1661609;85;21054;-81
2021/07/02 08:49:31;;;;;;;15.65;5.50;;;;;;;32.60;39.31;99295.09;1671550;85;21507;-79
2021/07/02 08:51:58;;;;;;;9.55;5.90;;;;;;;32.67;39.38;99289.08;1666785;85;21089;-79
2021/07/02 08:54:25;;;;;;;10.78;5.37;;;;;;;32.75;38.75;99286.06;1669728;85;21149;-83
2021/07/02 08:56:58;;;;;;;12.25;6.20;;;;;;;32.95;38.47;99282.36;1674198;85;21089;-83
2021/07/02 08:59:27;;;;;;;10.32;6.15;;;;;;;33.31;38.73;99284.86;1697112;84;21107;-83
2021/07/02 09:01:54;;;;;;;17.48;6.12;;;;;;;33.67;37.81;99280.53;1664444;85;21144;-82
2021/07/02 09:04:26;;;;;;;19.10;6.22;;;;;;;33.89;37.49;99276.27;1664620;85;21038;-83
2021/07/02 09:07:11;;;;;;;8.75;5.50;;;;;;;34.00;37.42;99272.73;1698029;84;21049;-82
2021/07/02 09:09:55;;;;;;;10.15;5.78;;;;;;;33.97;36.96;99270.47;1680625;85;21595;-83
2021/07/02 09:12:28;;;;;;;9.65;5.92;;;;;;;33.48;37.50;99275.04;1674009;84;21599;-83
2021/07/02 09:15:12;;;;;;;10.00;6.03;;;;;;;33.18;38.32;99274.41;1666273;85;21572;-81
2021/07/02 09:17:56;;;;;;;10.82;6.37;;;;;;;33.00;38.31;99272.44;1682644;84;21048;-82
2021/07/02 09:20:39;;;;;;;9.28;5.60;;;;;;;32.94;39.16;99268.40;1673094;84;21105;-83
2021/07/02 09:23:08;;;;;;;9.88;6.03;;;;;;;32.99;38.56;99277.59;1683971;84;21065;-83
2021/07/02 09:25:47;;;;;;;10.03;5.72;;;;;;;33.06;38.76;99268.02;1694797;84;21010;-82
2021/07/02 09:28:16;;;;;;;8.60;6.53;;;;;;;33.26;38.11;99273.80;1686822;84;21139;-83
2021/07/02 09:30:48;;;;;;;11.12;5.70;;;;;;;33.02;38.37;99274.95;1684111;84;21085;-82
2021/07/02 09:33:17;;;;;;;8.48;6.37;;;;;;;32.73;39.25;99285.45;1690662;84;21578;-81
2021/07/02 09:35:54;;;;;;;9.53;6.75;;;;;;;32.86;39.31;99291.87;1685052;84;21104;-83
2021/07/02 09:38:40;;;;;;;8.05;6.30;;;;;;;33.03;38.74;99282.06;1698371;84;21054;-82
2021/07/02 09:41:09;;;;;;;11.00;5.55;;;;;;;33.16;38.70;99286.06;1694577;84;21195;-82
2021/07/02 09:43:39;;;;;;;7.80;6.08;;;;;;;33.19;37.99;99291.06;1692127;84;21149;-81
2021/07/02 09:46:07;;;;;;;7.80;5.70;;;;;;;32.94;38.07;99292.94;1697644;84;21062;-80
2021/07/02 09:48:42;;;;;;;10.80;5.90;;;;;;;32.61;38.76;99289.95;1689831;84;21109;-81
2021/07/02 09:51:10;;;;;;;11.05;5.33;;;;;;;32.42;39.09;99290.88;1689074;83;21045;-81
2021/07/02 09:53:37;;;;;;;12.15;6.45;;;;;;;32.63;39.52;99278.84;1693163;84;21137;-82
2021/07/02 09:56:10;;;;;;;9.13;5.50;;;;;;;32.87;39.21;99277.17;1695338;84;21021;-81
2021/07/02 09:58:40;;;;;;;9.15;6.50;;;;;;;32.64;39.05;99278.60;1694733;84;21030;-81
2021/07/02 10:01:09;;;;;;;11.03;6.78;;;;;;;32.42;39.60;99277.25;1687472;84;21056;-82
2021/07/02 10:03:41;;;;;;;13.70;6.42;;;;;;;32.49;40.34;99276.17;1682574;84;21081;-81
2021/07/02 10:06:20;;;;;;;10.98;6.78;;;;;;;32.75;39.42;99266.98;1684650;84;21158;-81
2021/07/02 10:08:48;;;;;;;9.00;5.90;;;;;;;32.81;38.81;99275.65;1694610;84;21089;-82
2021/07/02 10:11:15;;;;;;;10.10;6.87;;;;;;;32.90;38.66;99275.34;1697678;84;21869;-82
2021/07/02 10:13:46;;;;;;;12.33;6.50;;;;;;;33.01;38.04;99278.72;1696974;84;21053;-82
2021/07/02 10:16:13;;;;;;;8.35;6.22;;;;;;;33.14;38.39;99277.80;1698527;84;21128;-82
2021/07/02 10:18:52;;;;;;;13.72;6.60;;;;;;;33.39;37.95;99273.67;1675001;84;21090;-82
2021/07/02 10:21:19;;;;;;;10.90;6.25;;;;;;;33.55;37.52;99273.06;1694930;84;21335;-85
2021/07/02 10:23:49;;;;;;;8.53;5.95;;;;;;;33.57;36.59;99281.03;1696866;84;21121;-79
2021/07/02 10:26:19;;;;;;;13.30;6.55;;;;;;;33.59;37.44;99280.28;1686942;84;21215;-78
2021/07/02 10:28:46;;;;;;;11.00;6.33;;;;;;;33.57;37.56;99277.80;1673184;85;21688;-78
2021/07/02 10:31:13;;;;;;;7.80;5.97;;;;;;;33.89;36.74;99283.60;1673199;85;21114;-78
2021/07/02 10:33:46;;;;;;;11.05;6.08;;;;;;;34.06;36.45;99281.38;1671003;84;21088;-78
2021/07/02 10:36:15;;;;;;;11.43;6.62;;;;;;;34.08;36.50;99283.06;1701734;84;21120;-77
2021/07/02 10:38:48;;;;;;;12.88;6.20;;;;;;;34.09;36.10;99283.35;1701629;84;21044;-78
2021/07/02 10:41:26;;;;;;;9.63;6.50;;;;;;;34.17;35.98;99288.54;1696891;84;21112;-80
2021/07/02 10:44:08;;;;;;;8.45;6.28;;;;;;;34.15;35.54;99281.93;1688411;84;21182;-80
2021/07/02 10:46:41;;;;;;;9.85;6.85;;;;;;;34.15;35.86;99288.76;1701738;84;21121;-82
2021/07/02 10:49:12;;;;;;;9.65;5.90;;;;;;;34.03;35.55;99285.13;1695177;84;21595;-81
2021/07/02 10:51:53;;;;;;;10.68;6.45;;;;;;;33.87;35.88;99282.99;1695626;84;21034;-81
2021/07/02 10:54:27;;;;;;;12.05;5.95;;;;;;;33.71;36.44;99281.75;1674037;84;21265;-82
2021/07/02 10:57:06;;;;;;;11.55;6.47;;;;;;;33.64;36.32;99285.92;1695909;84;21735;-80
2021/07/02 10:59:41;;;;;;;13.10;6.22;;;;;;;33.59;36.70;99287.97;1684073;84;21101;-82
2021/07/02 11:02:26;;;;;;;12.33;7.08;;;;;;;33.59;36.22;99283.87;1700398;84;21037;-82
2021/07/02 11:05:01;;;;;;;10.10;6.17;;;;;;;33.52;36.78;99281.72;1703478;84;21632;-81
2021/07/02 11:07:33;;;;;;;8.85;6.35;;;;;;;33.53;35.49;99291.56;1701686;84;21132;-82
2021/07/02 11:10:05;;;;;;;11.35;6.50;;;;;;;33.36;36.14;99287.74;1697859;84;21080;-85
2021/07/02 11:12:52;;;;;;;9.90;5.72;;;;;;;32.96;36.87;99289.47;1687146;84;21097;-82
2021/07/02 11:15:18;;;;;;;11.80;6.00;;;;;;;32.82;37.21;99295.56;1701360;83;21416;-83
2021/07/02 11:17:52;;;;;;;9.30;5.92;;;;;;;32.88;37.01;99291.13;1673311;84;21105;-81
2021/07/02 11:20:25;;;;;;;7.70;5.83;;;;;;;32.97;36.62;99282.97;1669028;84;21132;-81
2021/07/02 11:23:03;;;;;;;10.72;6.10;;;;;;;33.06;37.01;99285.75;1700918;84;21986;-82
2021/07/02 11:25:59;;;;;;;9.60;5.60;;;;;;;33.25;36.23;99282.52;1692682;84;21756;-81
2021/07/02 11:28:47;;;;;;;12.88;6.47;;;;;;;33.21;35.62;99286.22;1720849;83;21081;-82
2021/07/02 11:31:07;;;;;;;9.65;5.80;;;;;;;32.84;35.74;99281.72;1689357;84;21642;-84
2021/07/02 11:33:34;;;;;;;8.95;5.85;;;;;;;32.87;36.20;99286.72;1692501;84;21013;-81
2021/07/02 11:36:06;;;;;;;9.60;5.95;;;;;;;33.10;36.54;99281.49;1695285;84;21163;-83
2021/07/02 11:38:41;;;;;;;12.70;6.70;;;;;;;33.30;35.68;99275.85;1696419;84;21741;-82
2021/07/02 11:41:09;;;;;;;9.90;5.17;;;;;;;33.42;35.99;99267.75;1691545;84;21079;-83
2021/07/02 11:43:42;;;;;;;9.45;5.75;;;;;;;33.54;35.00;99271.38;1698144;83;21080;-81
2021/07/02 11:46:18;;;;;;;11.50;6.37;;;;;;;33.51;34.53;99260.92;1700078;84;21077;-81
2021/07/02 11:48:51;;;;;;;12.50;5.78;;;;;;;33.51;34.28;99259.56;1707253;84;21108;-82